sensor_id;sensor_type;location;lat;lon;timestamp;temperature;humidity
7004;DHT22;3542;48.812;9.146;2022-08-02T00:00:15;19.40;99.90
7004;DHT22;3542;48.812;9.146;2022-08-02T00:02:42;19.40;99.90
7004;DHT22;3542;48.812;9.146;2022-08-02T00:05:08;19.40;99.90
7004;DHT22;3542;48.812;9.146;2022-08-02T00:07:34;19.40;99.90
7004;DHT22;3542;48.812;9.146;2022-08-02T00:09:59;19.30;99.90
7004;DHT22;3542;48.812;9.146;2022-08-02T00:12:25;19.30;99.90
7004;DHT22;3542;48.812;9.146;2022-08-02T00:14:51;19.20;99.90
7004;DHT22;3542;48.812;9.146;2022-08-02T00:17:16;19.30;99.90
7004;DHT22;3542;48.812;9.146;2022-08-02T00:19:42;19.30;99.90
7004;DHT22;3542;48.812;9.146;2022-08-02T00:22:08;19.20;99.90
7004;DHT22;3542;48.812;9.146;2022-08-02T00:24:33;19.20;99.90
7004;DHT22;3542;48.812;9.146;2022-08-02T00:26:59;19.10;99.90
7004;DHT22;3542;48.812;9.146;2022-08-02T00:29:24;19.20;99.90
7004;DHT22;3542;48.812;9.146;2022-08-02T00:31:50;19.30;99.90
7004;DHT22;3542;48.812;9.146;2022-08-02T00:34:15;19.30;99.90
7004;DHT22;3542;48.812;9.146;2022-08-02T00:36:41;19.20;99.90
7004;DHT22;3542;48.812;9.146;2022-08-02T00:39:06;19.20;99.90
7004;DHT22;3542;48.812;9.146;2022-08-02T00:41:32;19.10;99.90
7004;DHT22;3542;48.812;9.146;2022-08-02T00:43:57;19.10;99.90
7004;DHT22;3542;48.812;9.146;2022-08-02T00:46:23;19.10;99.90
7004;DHT22;3542;48.812;9.146;2022-08-02T00:48:48;19.00;99.90
7004;DHT22;3542;48.812;9.146;2022-08-02T00:51:15;19.00;99.90
7004;DHT22;3542;48.812;9.146;2022-08-02T00:53:41;18.90;99.90
7004;DHT22;3542;48.812;9.146;2022-08-02T00:56:07;18.90;99.90
7004;DHT22;3542;48.812;9.146;2022-08-02T00:58:32;18.90;99.90
7004;DHT22;3542;48.812;9.146;2022-08-02T02:32:57;18.20;99.90
7004;DHT22;3542;48.812;9.146;2022-08-02T02:35:28;18.20;99.90
7004;DHT22;3542;48.812;9.146;2022-08-02T02:37:54;18.20;99.90
7004;DHT22;3542;48.812;9.146;2022-08-02T02:40:22;18.20;99.90
7004;DHT22;3542;48.812;9.146;2022-08-02T02:42:48;18.20;99.90
7004;DHT22;3542;48.812;9.146;2022-08-02T02:45:15;18.20;99.90
7004;DHT22;3542;48.812;9.146;2022-08-02T02:47:42;18.20;99.90
7004;DHT22;3542;48.812;9.146;2022-08-02T02:50:09;18.10;99.90
7004;DHT22;3542;48.812;9.146;2022-08-02T02:52:37;18.10;99.90
7004;DHT22;3542;48.812;9.146;2022-08-02T02:55:04;18.10;99.90
7004;DHT22;3542;48.812;9.146;2022-08-02T02:57:30;18.10;99.90
7004;DHT22;3542;48.812;9.146;2022-08-02T02:59:57;18.10;99.90
7004;DHT22;3542;48.812;9.146;2022-08-02T03:02:23;18.10;99.90
7004;DHT22;3542;48.812;9.146;2022-08-02T03:04:49;18.10;99.90
7004;DHT22;3542;48.812;9.146;2022-08-02T03:07:16;18.10;99.90
7004;DHT22;3542;48.812;9.146;2022-08-02T03:09:42;18.10;99.90
7004;DHT22;3542;48.812;9.146;2022-08-02T03:12:08;18.00;99.90
7004;DHT22;3542;48.812;9.146;2022-08-02T03:14:42;18.00;99.90
7004;DHT22;3542;48.812;9.146;2022-08-02T03:17:07;18.00;99.90
7004;DHT22;3542;48.812;9.146;2022-08-02T03:19:33;18.00;99.90
7004;DHT22;3542;48.812;9.146;2022-08-02T03:21:58;17.90;99.90
7004;DHT22;3542;48.812;9.146;2022-08-02T03:24:24;17.80;99.90
7004;DHT22;3542;48.812;9.146;2022-08-02T03:26:49;17.80;99.90
7004;DHT22;3542;48.812;9.146;2022-08-02T03:29:15;17.70;99.90
7004;DHT22;3542;48.812;9.146;2022-08-02T03:31:42;17.70;99.90
7004;DHT22;3542;48.812;9.146;2022-08-02T03:34:09;17.70;99.90
7004;DHT22;3542;48.812;9.146;2022-08-02T03:36:36;17.70;99.90
7004;DHT22;3542;48.812;9.146;2022-08-02T03:39:03;17.60;99.90
7004;DHT22;3542;48.812;9.146;2022-08-02T03:41:30;17.60;99.90
7004;DHT22;3542;48.812;9.146;2022-08-02T03:43:57;17.60;99.90
7004;DHT22;3542;48.812;9.146;2022-08-02T03:46:23;17.50;99.90
7004;DHT22;3542;48.812;9.146;2022-08-02T03:48:50;17.50;99.90
7004;DHT22;3542;48.812;9.146;2022-08-02T03:51:17;17.50;99.90
7004;DHT22;3542;48.812;9.146;2022-08-02T03:53:43;17.40;99.90
7004;DHT22;3542;48.812;9.146;2022-08-02T03:56:09;17.40;99.90
7004;DHT22;3542;48.812;9.146;2022-08-02T03:58:35;17.40;99.90
7004;DHT22;3542;48.812;9.146;2022-08-02T04:01:00;17.40;99.90
7004;DHT22;3542;48.812;9.146;2022-08-02T04:03:26;17.30;99.90
7004;DHT22;3542;48.812;9.146;2022-08-02T04:05:52;17.30;99.90
7004;DHT22;3542;48.812;9.146;2022-08-02T04:08:18;17.30;99.90
7004;DHT22;3542;48.812;9.146;2022-08-02T04:10:44;17.30;99.90
7004;DHT22;3542;48.812;9.146;2022-08-02T04:13:31;17.30;99.90
7004;DHT22;3542;48.812;9.146;2022-08-02T04:16:01;17.30;99.90
7004;DHT22;3542;48.812;9.146;2022-08-02T04:18:33;17.30;99.90
7004;DHT22;3542;48.812;9.146;2022-08-02T04:21:03;17.20;99.90
7004;DHT22;3542;48.812;9.146;2022-08-02T04:23:31;17.20;99.90
7004;DHT22;3542;48.812;9.146;2022-08-02T04:25:58;17.30;99.90
7004;DHT22;3542;48.812;9.146;2022-08-02T04:28:24;17.30;99.90
7004;DHT22;3542;48.812;9.146;2022-08-02T04:30:50;17.30;99.90
7004;DHT22;3542;48.812;9.146;2022-08-02T04:33:16;17.30;99.90
7004;DHT22;3542;48.812;9.146;2022-08-02T04:35:43;17.40;99.90
7004;DHT22;3542;48.812;9.146;2022-08-02T04:38:09;17.40;99.90
7004;DHT22;3542;48.812;9.146;2022-08-02T04:40:37;17.40;99.90
7004;DHT22;3542;48.812;9.146;2022-08-02T04:43:03;17.40;99.90
7004;DHT22;3542;48.812;9.146;2022-08-02T04:45:29;17.50;99.90
7004;DHT22;3542;48.812;9.146;2022-08-02T04:47:55;17.50;99.90
7004;DHT22;3542;48.812;9.146;2022-08-02T04:50:20;17.60;99.90
7004;DHT22;3542;48.812;9.146;2022-08-02T04:52:46;17.60;99.90
7004;DHT22;3542;48.812;9.146;2022-08-02T04:55:11;17.60;99.90
7004;DHT22;3542;48.812;9.146;2022-08-02T04:57:37;17.70;99.90
7004;DHT22;3542;48.812;9.146;2022-08-02T05:00:23;17.70;99.90
7004;DHT22;3542;48.812;9.146;2022-08-02T05:02:49;17.90;99.90
7004;DHT22;3542;48.812;9.146;2022-08-02T05:05:15;17.90;99.90
7004;DHT22;3542;48.812;9.146;2022-08-02T05:07:41;18.00;99.90
7004;DHT22;3542;48.812;9.146;2022-08-02T05:10:06;18.10;99.90
7004;DHT22;3542;48.812;9.146;2022-08-02T05:12:32;18.20;99.90
7004;DHT22;3542;48.812;9.146;2022-08-02T05:14:58;18.30;99.90
7004;DHT22;3542;48.812;9.146;2022-08-02T05:17:23;18.40;99.90
7004;DHT22;3542;48.812;9.146;2022-08-02T05:19:49;18.60;99.90
7004;DHT22;3542;48.812;9.146;2022-08-02T05:22:14;18.80;99.90
7004;DHT22;3542;48.812;9.146;2022-08-02T05:24:40;19.10;99.90
7004;DHT22;3542;48.812;9.146;2022-08-02T05:27:05;19.50;99.90
7004;DHT22;3542;48.812;9.146;2022-08-02T05:29:31;20.00;99.90
7004;DHT22;3542;48.812;9.146;2022-08-02T05:31:56;20.50;99.90
7004;DHT22;3542;48.812;9.146;2022-08-02T05:34:22;20.90;99.90
7004;DHT22;3542;48.812;9.146;2022-08-02T05:36:47;21.10;99.90
7004;DHT22;3542;48.812;9.146;2022-08-02T05:39:13;21.20;99.90
7004;DHT22;3542;48.812;9.146;2022-08-02T05:41:38;21.20;99.90
7004;DHT22;3542;48.812;9.146;2022-08-02T05:44:04;21.30;99.90
7004;DHT22;3542;48.812;9.146;2022-08-02T05:46:30;21.60;99.90
7004;DHT22;3542;48.812;9.146;2022-08-02T05:48:55;22.00;99.90
7004;DHT22;3542;48.812;9.146;2022-08-02T05:51:22;22.60;99.90
7004;DHT22;3542;48.812;9.146;2022-08-02T05:54:02;23.10;99.90
7004;DHT22;3542;48.812;9.146;2022-08-02T05:56:37;23.40;99.90
7004;DHT22;3542;48.812;9.146;2022-08-02T05:59:31;23.50;99.90
7004;DHT22;3542;48.812;9.146;2022-08-02T06:02:02;23.20;99.90
7004;DHT22;3542;48.812;9.146;2022-08-02T06:04:35;22.90;99.90
7004;DHT22;3542;48.812;9.146;2022-08-02T06:07:09;22.90;99.90
7004;DHT22;3542;48.812;9.146;2022-08-02T06:09:35;23.20;99.90
7004;DHT22;3542;48.812;9.146;2022-08-02T06:12:03;23.40;99.90
7004;DHT22;3542;48.812;9.146;2022-08-02T06:14:32;23.70;99.90
7004;DHT22;3542;48.812;9.146;2022-08-02T06:17:04;23.70;99.90
7004;DHT22;3542;48.812;9.146;2022-08-02T06:19:31;23.50;99.90
7004;DHT22;3542;48.812;9.146;2022-08-02T06:21:57;23.70;99.90
7004;DHT22;3542;48.812;9.146;2022-08-02T06:24:45;23.90;99.90
7004;DHT22;3542;48.812;9.146;2022-08-02T06:27:14;24.30;99.90
7004;DHT22;3542;48.812;9.146;2022-08-02T06:29:41;24.60;99.90
7004;DHT22;3542;48.812;9.146;2022-08-02T06:32:07;24.90;99.90
7004;DHT22;3542;48.812;9.146;2022-08-02T06:34:39;25.00;99.90
7004;DHT22;3542;48.812;9.146;2022-08-02T06:37:17;25.10;99.90
7004;DHT22;3542;48.812;9.146;2022-08-02T06:39:57;25.30;99.90
7004;DHT22;3542;48.812;9.146;2022-08-02T06:42:37;25.50;99.90
7004;DHT22;3542;48.812;9.146;2022-08-02T06:45:08;25.70;99.90
7004;DHT22;3542;48.812;9.146;2022-08-02T06:47:33;25.80;99.90
7004;DHT22;3542;48.812;9.146;2022-08-02T06:49:59;26.00;99.90
7004;DHT22;3542;48.812;9.146;2022-08-02T06:52:26;26.20;99.90
7004;DHT22;3542;48.812;9.146;2022-08-02T06:54:52;26.20;99.90
7004;DHT22;3542;48.812;9.146;2022-08-02T06:57:17;26.00;99.90
7004;DHT22;3542;48.812;9.146;2022-08-02T06:59:43;26.20;99.90
7004;DHT22;3542;48.812;9.146;2022-08-02T07:02:10;26.30;99.90
7004;DHT22;3542;48.812;9.146;2022-08-02T07:04:36;26.50;99.90
7004;DHT22;3542;48.812;9.146;2022-08-02T07:07:02;26.70;99.90
7004;DHT22;3542;48.812;9.146;2022-08-02T07:09:27;27.00;99.90
7004;DHT22;3542;48.812;9.146;2022-08-02T07:11:53;27.30;99.90
7004;DHT22;3542;48.812;9.146;2022-08-02T07:14:19;27.40;99.90
7004;DHT22;3542;48.812;9.146;2022-08-02T07:16:44;27.40;99.90
7004;DHT22;3542;48.812;9.146;2022-08-02T07:19:10;27.40;99.90
7004;DHT22;3542;48.812;9.146;2022-08-02T07:21:35;27.50;99.90
7004;DHT22;3542;48.812;9.146;2022-08-02T07:24:01;27.70;99.90
7004;DHT22;3542;48.812;9.146;2022-08-02T07:26:26;27.90;99.90
7004;DHT22;3542;48.812;9.146;2022-08-02T07:28:52;27.90;99.90
7004;DHT22;3542;48.812;9.146;2022-08-02T07:31:19;27.60;99.90
7004;DHT22;3542;48.812;9.146;2022-08-02T07:33:44;27.50;99.90
7004;DHT22;3542;48.812;9.146;2022-08-02T07:36:10;27.60;99.90
7004;DHT22;3542;48.812;9.146;2022-08-02T07:38:35;27.80;99.90
7004;DHT22;3542;48.812;9.146;2022-08-02T07:41:01;28.10;99.90
7004;DHT22;3542;48.812;9.146;2022-08-02T07:43:26;28.30;99.90
7004;DHT22;3542;48.812;9.146;2022-08-02T07:45:52;28.30;99.90
7004;DHT22;3542;48.812;9.146;2022-08-02T07:48:17;28.10;99.90
7004;DHT22;3542;48.812;9.146;2022-08-02T07:50:43;28.20;99.90
7004;DHT22;3542;48.812;9.146;2022-08-02T07:53:11;28.40;99.90
7004;DHT22;3542;48.812;9.146;2022-08-02T07:55:36;28.70;99.90
7004;DHT22;3542;48.812;9.146;2022-08-02T07:58:03;28.60;99.90
7004;DHT22;3542;48.812;9.146;2022-08-02T08:00:28;28.60;99.90
7004;DHT22;3542;48.812;9.146;2022-08-02T08:02:54;28.70;99.90
7004;DHT22;3542;48.812;9.146;2022-08-02T08:05:20;28.80;99.90
7004;DHT22;3542;48.812;9.146;2022-08-02T08:07:45;28.80;99.90
7004;DHT22;3542;48.812;9.146;2022-08-02T08:10:11;29.00;99.90
7004;DHT22;3542;48.812;9.146;2022-08-02T08:12:36;29.40;99.90
7004;DHT22;3542;48.812;9.146;2022-08-02T08:15:03;29.50;99.90
7004;DHT22;3542;48.812;9.146;2022-08-02T08:17:28;29.80;99.90
7004;DHT22;3542;48.812;9.146;2022-08-02T08:19:54;30.10;99.90
7004;DHT22;3542;48.812;9.146;2022-08-02T08:22:20;30.00;99.90
7004;DHT22;3542;48.812;9.146;2022-08-02T08:24:45;30.10;99.90
7004;DHT22;3542;48.812;9.146;2022-08-02T08:27:12;30.00;99.90
7004;DHT22;3542;48.812;9.146;2022-08-02T08:29:40;30.10;99.90
7004;DHT22;3542;48.812;9.146;2022-08-02T08:32:06;30.40;99.90
7004;DHT22;3542;48.812;9.146;2022-08-02T08:34:32;30.50;99.90
7004;DHT22;3542;48.812;9.146;2022-08-02T08:36:59;30.70;99.90
7004;DHT22;3542;48.812;9.146;2022-08-02T08:39:25;30.80;99.90
7004;DHT22;3542;48.812;9.146;2022-08-02T08:41:50;30.90;99.90
7004;DHT22;3542;48.812;9.146;2022-08-02T08:44:15;30.30;99.90
7004;DHT22;3542;48.812;9.146;2022-08-02T08:46:42;30.70;99.90
7004;DHT22;3542;48.812;9.146;2022-08-02T08:49:13;31.10;99.90
7004;DHT22;3542;48.812;9.146;2022-08-02T08:51:42;31.20;99.90
7004;DHT22;3542;48.812;9.146;2022-08-02T08:54:11;31.40;99.90
7004;DHT22;3542;48.812;9.146;2022-08-02T08:56:38;31.50;99.90
7004;DHT22;3542;48.812;9.146;2022-08-02T08:59:04;31.90;99.90
7004;DHT22;3542;48.812;9.146;2022-08-02T09:01:31;31.80;99.90
7004;DHT22;3542;48.812;9.146;2022-08-02T09:03:57;32.20;99.90
7004;DHT22;3542;48.812;9.146;2022-08-02T09:06:23;32.00;99.90
7004;DHT22;3542;48.812;9.146;2022-08-02T09:08:49;32.60;99.90
7004;DHT22;3542;48.812;9.146;2022-08-02T09:11:21;32.50;99.90
7004;DHT22;3542;48.812;9.146;2022-08-02T09:13:55;33.10;99.90
7004;DHT22;3542;48.812;9.146;2022-08-02T09:16:31;33.50;99.90
7004;DHT22;3542;48.812;9.146;2022-08-02T09:18:57;34.00;99.90
7004;DHT22;3542;48.812;9.146;2022-08-02T09:21:23;33.80;99.90
7004;DHT22;3542;48.812;9.146;2022-08-02T09:23:57;33.80;99.90
7004;DHT22;3542;48.812;9.146;2022-08-02T09:26:24;33.70;99.90
7004;DHT22;3542;48.812;9.146;2022-08-02T09:28:58;33.70;99.90
7004;DHT22;3542;48.812;9.146;2022-08-02T09:31:24;33.80;99.90
7004;DHT22;3542;48.812;9.146;2022-08-02T09:33:57;34.30;99.90
7004;DHT22;3542;48.812;9.146;2022-08-02T09:36:24;34.50;99.90
7004;DHT22;3542;48.812;9.146;2022-08-02T09:39:00;34.90;99.90
7004;DHT22;3542;48.812;9.146;2022-08-02T09:41:31;35.30;99.90
7004;DHT22;3542;48.812;9.146;2022-08-02T09:43:57;35.00;99.30
7004;DHT22;3542;48.812;9.146;2022-08-02T09:46:31;34.70;98.80
7004;DHT22;3542;48.812;9.146;2022-08-02T09:49:06;33.90;99.60
7004;DHT22;3542;48.812;9.146;2022-08-02T09:51:47;32.90;99.90
7004;DHT22;3542;48.812;9.146;2022-08-02T09:54:19;32.00;99.90
7004;DHT22;3542;48.812;9.146;2022-08-02T09:56:47;31.10;99.90
7004;DHT22;3542;48.812;9.146;2022-08-02T09:59:14;30.60;99.90
7004;DHT22;3542;48.812;9.146;2022-08-02T10:01:41;30.30;99.90
7004;DHT22;3542;48.812;9.146;2022-08-02T10:04:09;29.90;99.90
7004;DHT22;3542;48.812;9.146;2022-08-02T10:06:39;30.20;99.90
7004;DHT22;3542;48.812;9.146;2022-08-02T10:09:07;31.10;99.90
7004;DHT22;3542;48.812;9.146;2022-08-02T10:11:33;32.00;99.90
7004;DHT22;3542;48.812;9.146;2022-08-02T10:14:01;32.70;99.90
7004;DHT22;3542;48.812;9.146;2022-08-02T10:16:27;33.60;99.90
7004;DHT22;3542;48.812;9.146;2022-08-02T10:18:54;33.80;99.90
7004;DHT22;3542;48.812;9.146;2022-08-02T10:21:25;34.40;99.90
7004;DHT22;3542;48.812;9.146;2022-08-02T10:24:03;34.60;99.70
7004;DHT22;3542;48.812;9.146;2022-08-02T10:26:30;35.00;98.50
7004;DHT22;3542;48.812;9.146;2022-08-02T10:28:56;35.20;98.50
7004;DHT22;3542;48.812;9.146;2022-08-02T10:31:26;35.20;97.90
7004;DHT22;3542;48.812;9.146;2022-08-02T10:33:53;34.40;97.80
7004;DHT22;3542;48.812;9.146;2022-08-02T10:36:21;34.20;98.60
7004;DHT22;3542;48.812;9.146;2022-08-02T10:38:48;34.20;98.20
7004;DHT22;3542;48.812;9.146;2022-08-02T10:41:13;34.20;98.00
7004;DHT22;3542;48.812;9.146;2022-08-02T10:43:41;34.70;97.10
7004;DHT22;3542;48.812;9.146;2022-08-02T10:49:06;35.30;96.70
7004;DHT22;3542;48.812;9.146;2022-08-02T10:56:57;35.80;94.20
7004;DHT22;3542;48.812;9.146;2022-08-02T10:59:40;36.00;94.10
7004;DHT22;3542;48.812;9.146;2022-08-02T11:02:06;36.40;94.00
7004;DHT22;3542;48.812;9.146;2022-08-02T11:07:12;35.80;93.50
7004;DHT22;3542;48.812;9.146;2022-08-02T11:09:49;35.70;93.30
7004;DHT22;3542;48.812;9.146;2022-08-02T11:12:17;35.80;93.10
7004;DHT22;3542;48.812;9.146;2022-08-02T11:15:01;35.90;93.00
7004;DHT22;3542;48.812;9.146;2022-08-02T11:17:51;34.90;92.10
7004;DHT22;3542;48.812;9.146;2022-08-02T11:20:18;32.90;93.90
7004;DHT22;3542;48.812;9.146;2022-08-02T11:22:45;32.00;95.00
7004;DHT22;3542;48.812;9.146;2022-08-02T11:27:53;31.30;96.00
7004;DHT22;3542;48.812;9.146;2022-08-02T11:30:19;31.30;96.20
7004;DHT22;3542;48.812;9.146;2022-08-02T11:32:47;31.50;96.90
7004;DHT22;3542;48.812;9.146;2022-08-02T11:35:12;31.60;97.20
7004;DHT22;3542;48.812;9.146;2022-08-02T11:37:41;32.10;97.00
7004;DHT22;3542;48.812;9.146;2022-08-02T11:42:37;33.00;96.00
7004;DHT22;3542;48.812;9.146;2022-08-02T11:45:07;33.20;96.80
7004;DHT22;3542;48.812;9.146;2022-08-02T11:47:53;33.60;95.20
7004;DHT22;3542;48.812;9.146;2022-08-02T11:50:20;33.70;94.00
7004;DHT22;3542;48.812;9.146;2022-08-02T11:52:49;33.70;94.80
7004;DHT22;3542;48.812;9.146;2022-08-02T11:55:17;33.60;94.80
7004;DHT22;3542;48.812;9.146;2022-08-02T11:57:57;33.90;94.90
7004;DHT22;3542;48.812;9.146;2022-08-02T12:00:22;33.90;93.20
7004;DHT22;3542;48.812;9.146;2022-08-02T12:02:48;33.70;93.10
7004;DHT22;3542;48.812;9.146;2022-08-02T12:05:19;33.70;93.30
7004;DHT22;3542;48.812;9.146;2022-08-02T12:07:45;33.50;93.30
7004;DHT22;3542;48.812;9.146;2022-08-02T12:10:17;32.90;93.90
7004;DHT22;3542;48.812;9.146;2022-08-02T12:12:54;32.70;93.90
7004;DHT22;3542;48.812;9.146;2022-08-02T12:17:55;32.00;94.50
7004;DHT22;3542;48.812;9.146;2022-08-02T12:20:39;31.70;95.00
7004;DHT22;3542;48.812;9.146;2022-08-02T12:23:05;31.20;95.20
7004;DHT22;3542;48.812;9.146;2022-08-02T12:25:31;30.80;95.20
7004;DHT22;3542;48.812;9.146;2022-08-02T12:28:13;30.40;95.60
7004;DHT22;3542;48.812;9.146;2022-08-02T12:30:53;30.50;96.50
7004;DHT22;3542;48.812;9.146;2022-08-02T12:33:20;30.80;95.70
7004;DHT22;3542;48.812;9.146;2022-08-02T12:35:46;30.90;96.10
7004;DHT22;3542;48.812;9.146;2022-08-02T12:38:11;31.20;95.10
7004;DHT22;3542;48.812;9.146;2022-08-02T12:40:37;31.30;95.30
7004;DHT22;3542;48.812;9.146;2022-08-02T12:43:04;31.30;94.50
7004;DHT22;3542;48.812;9.146;2022-08-02T12:45:43;31.30;94.80
7004;DHT22;3542;48.812;9.146;2022-08-02T12:48:09;31.30;94.00
7004;DHT22;3542;48.812;9.146;2022-08-02T12:50:35;31.30;94.10
7004;DHT22;3542;48.812;9.146;2022-08-02T12:55:35;30.70;94.70
7004;DHT22;3542;48.812;9.146;2022-08-02T12:58:06;30.40;95.10
7004;DHT22;3542;48.812;9.146;2022-08-02T13:00:35;30.10;94.90
7004;DHT22;3542;48.812;9.146;2022-08-02T13:03:05;29.70;94.80
7004;DHT22;3542;48.812;9.146;2022-08-02T13:05:38;29.40;95.00
7004;DHT22;3542;48.812;9.146;2022-08-02T13:08:04;29.40;95.50
7004;DHT22;3542;48.812;9.146;2022-08-02T13:10:30;29.50;95.60
7004;DHT22;3542;48.812;9.146;2022-08-02T13:12:55;29.60;95.50
7004;DHT22;3542;48.812;9.146;2022-08-02T13:15:21;29.50;95.40
7004;DHT22;3542;48.812;9.146;2022-08-02T13:17:47;29.60;95.80
7004;DHT22;3542;48.812;9.146;2022-08-02T13:20:12;29.50;95.50
7004;DHT22;3542;48.812;9.146;2022-08-02T13:22:41;29.40;95.20
7004;DHT22;3542;48.812;9.146;2022-08-02T13:25:07;29.40;94.90
7004;DHT22;3542;48.812;9.146;2022-08-02T13:27:33;29.50;94.60
7004;DHT22;3542;48.812;9.146;2022-08-02T13:29:59;29.60;94.80
7004;DHT22;3542;48.812;9.146;2022-08-02T13:32:26;29.70;94.60
7004;DHT22;3542;48.812;9.146;2022-08-02T13:34:55;29.90;94.30
7004;DHT22;3542;48.812;9.146;2022-08-02T13:37:22;30.00;94.00
7004;DHT22;3542;48.812;9.146;2022-08-02T13:39:48;30.20;94.00
7004;DHT22;3542;48.812;9.146;2022-08-02T13:42:13;30.20;93.70
7004;DHT22;3542;48.812;9.146;2022-08-02T13:44:39;30.20;93.80
7004;DHT22;3542;48.812;9.146;2022-08-02T13:47:05;30.30;95.10
7004;DHT22;3542;48.812;9.146;2022-08-02T13:49:30;30.50;94.50
7004;DHT22;3542;48.812;9.146;2022-08-02T13:51:56;30.60;94.10
7004;DHT22;3542;48.812;9.146;2022-08-02T13:54:21;30.60;93.90
7004;DHT22;3542;48.812;9.146;2022-08-02T13:56:47;30.60;94.00
7004;DHT22;3542;48.812;9.146;2022-08-02T13:59:12;30.70;93.20
7004;DHT22;3542;48.812;9.146;2022-08-02T14:01:38;30.70;93.50
7004;DHT22;3542;48.812;9.146;2022-08-02T14:04:04;30.80;93.20
7004;DHT22;3542;48.812;9.146;2022-08-02T14:06:29;30.70;93.00
7004;DHT22;3542;48.812;9.146;2022-08-02T14:08:55;30.80;93.00
7004;DHT22;3542;48.812;9.146;2022-08-02T14:11:21;30.90;92.30
7004;DHT22;3542;48.812;9.146;2022-08-02T14:13:46;30.90;92.10
7004;DHT22;3542;48.812;9.146;2022-08-02T14:16:12;30.90;92.90
7004;DHT22;3542;48.812;9.146;2022-08-02T14:18:37;30.70;92.40
7004;DHT22;3542;48.812;9.146;2022-08-02T14:21:03;30.70;93.00
7004;DHT22;3542;48.812;9.146;2022-08-02T14:23:29;30.80;93.50
7004;DHT22;3542;48.812;9.146;2022-08-02T14:25:56;30.80;92.60
7004;DHT22;3542;48.812;9.146;2022-08-02T14:28:22;30.70;92.90
7004;DHT22;3542;48.812;9.146;2022-08-02T14:30:48;30.80;92.40
7004;DHT22;3542;48.812;9.146;2022-08-02T14:33:13;30.90;92.40
7004;DHT22;3542;48.812;9.146;2022-08-02T14:35:39;30.80;92.40
7004;DHT22;3542;48.812;9.146;2022-08-02T14:38:04;30.90;92.10
7004;DHT22;3542;48.812;9.146;2022-08-02T14:40:30;30.90;92.40
7004;DHT22;3542;48.812;9.146;2022-08-02T14:42:56;30.90;91.80
7004;DHT22;3542;48.812;9.146;2022-08-02T14:45:22;31.00;91.50
7004;DHT22;3542;48.812;9.146;2022-08-02T14:47:50;31.00;91.90
7004;DHT22;3542;48.812;9.146;2022-08-02T14:50:16;30.90;91.80
7004;DHT22;3542;48.812;9.146;2022-08-02T14:52:44;31.00;91.80
7004;DHT22;3542;48.812;9.146;2022-08-02T14:55:09;30.90;92.20
7004;DHT22;3542;48.812;9.146;2022-08-02T14:57:35;30.80;91.60
7004;DHT22;3542;48.812;9.146;2022-08-02T15:00:00;30.50;91.50
7004;DHT22;3542;48.812;9.146;2022-08-02T15:02:26;30.40;91.70
7004;DHT22;3542;48.812;9.146;2022-08-02T15:04:52;30.20;91.50
7004;DHT22;3542;48.812;9.146;2022-08-02T15:07:18;30.10;91.80
7004;DHT22;3542;48.812;9.146;2022-08-02T15:09:43;30.00;91.80
7004;DHT22;3542;48.812;9.146;2022-08-02T15:12:10;29.90;91.80
7004;DHT22;3542;48.812;9.146;2022-08-02T15:14:36;30.00;92.50
7004;DHT22;3542;48.812;9.146;2022-08-02T15:17:02;30.00;93.10
7004;DHT22;3542;48.812;9.146;2022-08-02T15:19:29;29.90;92.90
7004;DHT22;3542;48.812;9.146;2022-08-02T15:21:54;29.80;92.50
7004;DHT22;3542;48.812;9.146;2022-08-02T15:24:20;29.80;92.30
7004;DHT22;3542;48.812;9.146;2022-08-02T15:26:45;29.60;92.20
7004;DHT22;3542;48.812;9.146;2022-08-02T15:29:11;29.60;92.20
7004;DHT22;3542;48.812;9.146;2022-08-02T15:31:36;29.60;92.50
7004;DHT22;3542;48.812;9.146;2022-08-02T15:34:02;29.60;92.20
7004;DHT22;3542;48.812;9.146;2022-08-02T15:36:28;29.60;92.30
7004;DHT22;3542;48.812;9.146;2022-08-02T15:38:53;29.70;92.60
7004;DHT22;3542;48.812;9.146;2022-08-02T15:41:19;29.60;91.90
7004;DHT22;3542;48.812;9.146;2022-08-02T15:43:44;29.60;91.90
7004;DHT22;3542;48.812;9.146;2022-08-02T15:46:10;29.60;92.10
7004;DHT22;3542;48.812;9.146;2022-08-02T15:48:35;29.60;92.60
7004;DHT22;3542;48.812;9.146;2022-08-02T15:51:01;29.50;92.30
7004;DHT22;3542;48.812;9.146;2022-08-02T15:53:27;29.50;91.80
7004;DHT22;3542;48.812;9.146;2022-08-02T15:55:53;29.40;92.00
7004;DHT22;3542;48.812;9.146;2022-08-02T15:58:19;29.30;92.10
7004;DHT22;3542;48.812;9.146;2022-08-02T16:00:44;29.20;92.10
7004;DHT22;3542;48.812;9.146;2022-08-02T16:03:10;29.20;92.40
7004;DHT22;3542;48.812;9.146;2022-08-02T16:05:35;29.10;92.70
7004;DHT22;3542;48.812;9.146;2022-08-02T16:08:01;29.10;92.80
7004;DHT22;3542;48.812;9.146;2022-08-02T16:10:26;29.00;92.70
7004;DHT22;3542;48.812;9.146;2022-08-02T16:12:52;29.00;92.90
7004;DHT22;3542;48.812;9.146;2022-08-02T16:15:17;29.00;93.10
7004;DHT22;3542;48.812;9.146;2022-08-02T16:17:43;29.00;92.80
7004;DHT22;3542;48.812;9.146;2022-08-02T16:20:09;29.00;92.80
7004;DHT22;3542;48.812;9.146;2022-08-02T16:22:34;29.00;92.90
7004;DHT22;3542;48.812;9.146;2022-08-02T16:25:00;29.00;93.30
7004;DHT22;3542;48.812;9.146;2022-08-02T16:27:26;28.90;93.20
7004;DHT22;3542;48.812;9.146;2022-08-02T16:29:51;28.90;93.20
7004;DHT22;3542;48.812;9.146;2022-08-02T16:32:17;28.90;93.20
7004;DHT22;3542;48.812;9.146;2022-08-02T16:34:43;28.80;93.10
7004;DHT22;3542;48.812;9.146;2022-08-02T16:37:08;28.80;93.20
7004;DHT22;3542;48.812;9.146;2022-08-02T16:39:34;28.70;93.30
7004;DHT22;3542;48.812;9.146;2022-08-02T16:42:00;28.70;93.30
7004;DHT22;3542;48.812;9.146;2022-08-02T16:44:25;28.60;92.90
7004;DHT22;3542;48.812;9.146;2022-08-02T16:46:53;28.60;93.10
7004;DHT22;3542;48.812;9.146;2022-08-02T16:49:18;28.60;93.30
7004;DHT22;3542;48.812;9.146;2022-08-02T16:51:44;28.60;93.50
7004;DHT22;3542;48.812;9.146;2022-08-02T16:54:09;28.60;93.40
7004;DHT22;3542;48.812;9.146;2022-08-02T16:56:35;28.60;93.70
7004;DHT22;3542;48.812;9.146;2022-08-02T16:59:01;28.60;94.00
7004;DHT22;3542;48.812;9.146;2022-08-02T17:01:27;28.50;94.10
7004;DHT22;3542;48.812;9.146;2022-08-02T17:03:52;28.50;93.90
7004;DHT22;3542;48.812;9.146;2022-08-02T17:06:18;28.50;93.90
7004;DHT22;3542;48.812;9.146;2022-08-02T17:08:43;28.50;93.70
7004;DHT22;3542;48.812;9.146;2022-08-02T17:11:09;28.40;93.80
7004;DHT22;3542;48.812;9.146;2022-08-02T17:13:34;28.40;94.00
7004;DHT22;3542;48.812;9.146;2022-08-02T17:16:00;28.40;94.30
7004;DHT22;3542;48.812;9.146;2022-08-02T17:18:25;28.30;94.50
7004;DHT22;3542;48.812;9.146;2022-08-02T17:20:51;28.30;93.80
7004;DHT22;3542;48.812;9.146;2022-08-02T17:23:16;28.30;93.90
7004;DHT22;3542;48.812;9.146;2022-08-02T17:25:42;28.20;94.40
7004;DHT22;3542;48.812;9.146;2022-08-02T17:28:08;28.20;94.00
7004;DHT22;3542;48.812;9.146;2022-08-02T17:30:33;28.20;94.30
7004;DHT22;3542;48.812;9.146;2022-08-02T17:32:59;28.10;94.50
7004;DHT22;3542;48.812;9.146;2022-08-02T17:35:24;28.00;94.40
7004;DHT22;3542;48.812;9.146;2022-08-02T17:37:50;28.00;94.50
7004;DHT22;3542;48.812;9.146;2022-08-02T17:40:16;27.90;94.60
7004;DHT22;3542;48.812;9.146;2022-08-02T17:42:41;27.90;94.70
7004;DHT22;3542;48.812;9.146;2022-08-02T17:45:07;27.80;94.60
7004;DHT22;3542;48.812;9.146;2022-08-02T17:47:33;27.80;95.00
7004;DHT22;3542;48.812;9.146;2022-08-02T17:49:58;27.60;94.90
7004;DHT22;3542;48.812;9.146;2022-08-02T17:52:24;27.60;95.10
7004;DHT22;3542;48.812;9.146;2022-08-02T17:54:50;27.50;95.20